Time;durP1;ratioP1;P1;durP2;ratioP2;P2;SDS_P1;SDS_P2;PMS_P1;PMS_P2;Temp;Humidity;BMP_temperature;BMP_pressure;BME280_temperature;BME280_humidity;BME280_pressure;Samples;Min_cycle;Max_cycle;Signal;HPM_P1;HPM_P2
2022/04/29 00:00:46;;;;;;;605.93;574.07;;;6.50;99.90;;;;;;4977325;28;20542;-82
2022/04/29 00:03:14;;;;;;;596.23;567.60;;;6.60;99.90;;;;;;4978461;28;21029;-82
2022/04/29 00:05:42;;;;;;;593.97;565.47;;;6.60;99.90;;;;;;4976532;28;20454;-82
2022/04/29 00:08:11;;;;;;;580.30;554.27;;;6.70;99.90;;;;;;4975585;28;20944;-80
2022/04/29 00:10:39;;;;;;;568.50;541.90;;;6.50;99.90;;;;;;4976816;28;20478;-82
2022/04/29 00:13:09;;;;;;;539.40;515.23;;;6.70;99.90;;;;;;4978298;28;20579;-82
2022/04/29 00:15:36;;;;;;;551.33;526.57;;;6.70;99.90;;;;;;4977690;28;20545;-82
2022/04/29 00:18:04;;;;;;;545.57;521.17;;;6.70;99.90;;;;;;4977618;28;20458;-82
2022/04/29 00:20:30;;;;;;;554.37;529.90;;;6.80;99.90;;;;;;4975871;28;20471;-81
2022/04/29 00:22:57;;;;;;;546.17;522.87;;;6.60;99.90;;;;;;4975525;28;20567;-83
2022/04/29 00:25:24;;;;;;;530.93;507.77;;;6.60;99.90;;;;;;4980408;28;20473;-82
2022/04/29 00:27:51;;;;;;;490.90;470.13;;;6.70;99.90;;;;;;4980702;28;20462;-82
2022/04/29 00:30:19;;;;;;;506.40;485.10;;;6.90;99.90;;;;;;4979644;28;20482;-82
2022/04/29 00:32:46;;;;;;;464.60;446.20;;;6.80;99.90;;;;;;4979808;28;20463;-82
2022/04/29 00:35:12;;;;;;;438.97;420.90;;;6.80;99.90;;;;;;4980005;28;20844;-81
2022/04/29 00:37:46;;;;;;;459.27;438.33;;;6.80;99.90;;;;;;4979625;28;20467;-82
2022/04/29 00:40:17;;;;;;;465.13;443.63;;;6.60;99.90;;;;;;4979617;28;20481;-82
2022/04/29 00:42:45;;;;;;;487.27;465.70;;;6.50;99.90;;;;;;4979705;28;20510;-82
2022/04/29 00:45:12;;;;;;;474.13;453.27;;;6.50;99.90;;;;;;4980118;28;20971;-81
2022/04/29 00:47:41;;;;;;;532.00;508.50;;;6.50;99.90;;;;;;4980353;28;20948;-82
2022/04/29 00:50:09;;;;;;;632.33;601.23;;;6.40;99.90;;;;;;4978886;28;20475;-82
2022/04/29 00:52:39;;;;;;;665.83;632.33;;;6.30;99.90;;;;;;4979632;28;20459;-82
2022/04/29 00:55:09;;;;;;;676.50;640.63;;;6.30;99.90;;;;;;4980179;28;20462;-82
2022/04/29 00:57:41;;;;;;;647.83;614.03;;;6.30;99.90;;;;;;4979605;28;20459;-82
2022/04/29 01:00:14;;;;;;;580.43;552.43;;;6.30;99.90;;;;;;4979073;28;20491;-82
2022/04/29 01:02:44;;;;;;;709.87;670.67;;;6.20;99.90;;;;;;4979011;28;20478;-80
2022/04/29 01:05:14;;;;;;;730.50;687.60;;;6.20;99.90;;;;;;4979031;28;20466;-82
2022/04/29 01:07:42;;;;;;;773.33;726.33;;;6.10;99.90;;;;;;4980016;28;20547;-82
2022/04/29 01:10:12;;;;;;;778.87;731.27;;;6.20;99.90;;;;;;4978977;28;20475;-82
2022/04/29 01:12:40;;;;;;;779.60;732.70;;;6.10;99.90;;;;;;4979399;28;20818;-82
2022/04/29 01:15:10;;;;;;;794.23;742.77;;;6.10;99.90;;;;;;4979420;28;21054;-82
2022/04/29 01:17:39;;;;;;;807.60;756.23;;;6.10;99.90;;;;;;4979326;28;20490;-82
2022/04/29 01:20:09;;;;;;;784.20;734.73;;;6.20;99.90;;;;;;4978746;28;20551;-82
2022/04/29 01:22:37;;;;;;;781.47;733.63;;;6.20;99.90;;;;;;4979264;28;20578;-81
2022/04/29 01:25:05;;;;;;;802.20;753.50;;;6.10;99.90;;;;;;4979362;28;20986;-82
2022/04/29 01:27:32;;;;;;;794.73;746.03;;;6.10;99.90;;;;;;4978996;28;20455;-81
2022/04/29 01:30:01;;;;;;;794.27;746.17;;;6.10;99.90;;;;;;4977906;28;21000;-81
2022/04/29 01:32:29;;;;;;;779.03;730.53;;;6.10;99.90;;;;;;4979156;28;20459;-82
2022/04/29 01:34:55;;;;;;;795.90;746.77;;;6.10;99.90;;;;;;4978580;28;20846;-82
2022/04/29 01:37:22;;;;;;;814.17;761.70;;;6.10;99.90;;;;;;4977986;28;20455;-82
2022/04/29 01:39:50;;;;;;;829.97;776.47;;;6.10;99.90;;;;;;4978380;28;20991;-82
2022/04/29 01:42:17;;;;;;;843.43;788.27;;;6.20;99.90;;;;;;4978325;28;20482;-81
2022/04/29 01:44:45;;;;;;;840.03;785.53;;;6.10;99.90;;;;;;4979105;28;20459;-82
2022/04/29 01:47:12;;;;;;;832.20;778.77;;;6.10;99.90;;;;;;4979262;28;20459;-81
2022/04/29 01:49:39;;;;;;;851.63;794.07;;;6.10;99.90;;;;;;4977975;28;20855;-82
2022/04/29 01:52:06;;;;;;;852.67;793.67;;;6.10;99.90;;;;;;4978749;28;20455;-82
2022/04/29 01:54:33;;;;;;;859.40;800.63;;;6.20;99.90;;;;;;4978993;28;20830;-82
2022/04/29 01:57:01;;;;;;;858.00;799.57;;;6.10;99.90;;;;;;4978937;28;20466;-82
2022/04/29 01:59:29;;;;;;;866.53;808.07;;;6.20;99.90;;;;;;4977565;28;20486;-82
2022/04/29 02:01:56;;;;;;;870.23;812.00;;;6.10;99.90;;;;;;4978755;28;20459;-82
2022/04/29 02:04:23;;;;;;;868.10;810.10;;;6.10;99.90;;;;;;4978485;28;20992;-82
2022/04/29 02:06:49;;;;;;;862.70;805.50;;;6.10;99.90;;;;;;4978625;28;20455;-82
2022/04/29 02:09:16;;;;;;;857.83;800.13;;;6.10;99.90;;;;;;4977216;28;20471;-81
2022/04/29 02:12:03;;;;;;;847.23;789.77;;;6.10;99.90;;;;;;4978121;28;20451;-82
2022/04/29 02:14:32;;;;;;;848.20;791.80;;;6.10;99.90;;;;;;4978074;28;20471;-82
2022/04/29 02:17:00;;;;;;;854.87;798.40;;;6.00;99.90;;;;;;4978303;28;20451;-82
2022/04/29 02:19:28;;;;;;;842.60;785.40;;;6.00;99.90;;;;;;4977366;28;20485;-81
2022/04/29 02:21:55;;;;;;;857.87;798.77;;;6.00;99.90;;;;;;4978345;28;20545;-82
2022/04/29 02:24:22;;;;;;;847.47;788.97;;;6.10;99.90;;;;;;4978245;28;20458;-82
2022/04/29 02:26:49;;;;;;;864.13;802.40;;;6.00;99.90;;;;;;4978111;28;20459;-82
2022/04/29 02:29:15;;;;;;;873.13;809.97;;;6.10;99.90;;;;;;4976937;28;20481;-81
2022/04/29 02:31:43;;;;;;;871.27;810.07;;;6.10;99.90;;;;;;4978060;28;20455;-83
2022/04/29 02:34:10;;;;;;;878.50;816.40;;;6.00;99.90;;;;;;4976898;28;20448;-81
2022/04/29 02:36:37;;;;;;;871.33;810.20;;;6.00;99.90;;;;;;4976201;28;20463;-82
2022/04/29 02:39:04;;;;;;;879.23;815.60;;;5.90;99.90;;;;;;4976452;28;20474;-82
2022/04/29 02:41:31;;;;;;;893.23;828.23;;;5.90;99.90;;;;;;4978321;28;20466;-82
2022/04/29 02:43:58;;;;;;;899.30;831.90;;;6.10;99.90;;;;;;4977866;28;20969;-81
2022/04/29 02:46:24;;;;;;;901.60;833.90;;;6.00;99.90;;;;;;4976914;28;20462;-81
2022/04/29 02:48:53;;;;;;;891.10;823.47;;;6.10;99.90;;;;;;4977286;28;21608;-82
2022/04/29 02:51:19;;;;;;;888.07;822.40;;;6.20;99.90;;;;;;4978314;28;20462;-82
2022/04/29 02:53:46;;;;;;;877.53;812.53;;;6.10;99.90;;;;;;4977671;28;20964;-82
2022/04/29 02:56:13;;;;;;;880.77;816.47;;;6.10;99.90;;;;;;4977318;28;20466;-82
2022/04/29 02:58:39;;;;;;;864.07;802.80;;;6.20;99.90;;;;;;4976357;28;20482;-82
2022/04/29 03:01:07;;;;;;;862.47;802.17;;;6.10;99.90;;;;;;4977382;28;20488;-81
2022/04/29 03:03:34;;;;;;;862.63;802.93;;;6.20;99.90;;;;;;4976973;28;20479;-82
2022/04/29 03:06:02;;;;;;;861.97;802.27;;;6.20;99.90;;;;;;4976977;28;20465;-82
2022/04/29 03:08:28;;;;;;;865.57;804.87;;;6.20;99.90;;;;;;4976511;28;20501;-82
2022/04/29 03:10:55;;;;;;;878.40;815.93;;;6.30;99.90;;;;;;4976918;28;20483;-82
2022/04/29 03:13:22;;;;;;;871.00;810.00;;;6.30;99.90;;;;;;4976815;28;20458;-82
2022/04/29 03:15:49;;;;;;;873.80;813.10;;;6.30;99.90;;;;;;4975989;28;20458;-80
2022/04/29 03:18:22;;;;;;;877.67;816.87;;;6.30;99.90;;;;;;4974799;28;20455;-79
2022/04/29 03:20:52;;;;;;;887.97;826.77;;;6.30;99.90;;;;;;4975821;28;20478;-79
2022/04/29 03:23:22;;;;;;;878.33;818.17;;;6.30;99.90;;;;;;4975876;28;20491;-80
2022/04/29 03:25:49;;;;;;;872.93;811.70;;;6.40;99.90;;;;;;4975613;28;20482;-80
2022/04/29 03:28:16;;;;;;;868.67;807.60;;;6.30;99.90;;;;;;4974537;28;20454;-79
2022/04/29 03:30:43;;;;;;;875.57;813.80;;;6.30;99.90;;;;;;4975580;28;20475;-80
2022/04/29 03:33:11;;;;;;;882.17;818.27;;;6.40;99.90;;;;;;4975165;28;20549;-80
2022/04/29 03:35:42;;;;;;;891.60;826.37;;;6.30;99.90;;;;;;4975200;28;20458;-80
2022/04/29 03:38:08;;;;;;;890.20;823.20;;;6.30;99.90;;;;;;4973586;28;20463;-78
2022/04/29 03:40:37;;;;;;;879.33;814.37;;;6.30;99.90;;;;;;4975412;28;20863;-80
2022/04/29 03:43:04;;;;;;;890.40;824.87;;;6.30;99.90;;;;;;4975927;28;21156;-80
2022/04/29 03:45:31;;;;;;;892.20;826.80;;;6.20;99.90;;;;;;4976723;28;20459;-80
2022/04/29 03:47:57;;;;;;;891.57;825.70;;;6.20;99.90;;;;;;4975955;28;20459;-80
2022/04/29 03:50:27;;;;;;;902.17;834.60;;;6.10;99.90;;;;;;4975203;28;20502;-81
2022/04/29 03:52:57;;;;;;;902.33;835.47;;;6.20;99.90;;;;;;4976041;28;20462;-80
2022/04/29 03:55:24;;;;;;;909.30;840.30;;;6.10;99.90;;;;;;4975814;28;20462;-80
2022/04/29 03:57:54;;;;;;;908.40;837.30;;;6.10;99.90;;;;;;4975869;28;20462;-81
2022/04/29 04:00:21;;;;;;;900.80;829.70;;;6.10;99.90;;;;;;4975478;28;20487;-81
2022/04/29 04:02:49;;;;;;;899.83;825.93;;;6.00;99.90;;;;;;4975420;28;20506;-81
2022/04/29 04:05:17;;;;;;;908.40;834.93;;;6.00;99.90;;;;;;4975966;28;20465;-79
2022/04/29 04:07:43;;;;;;;904.93;833.90;;;6.00;99.90;;;;;;4972434;28;20462;-80
2022/04/29 04:10:11;;;;;;;910.73;838.33;;;6.00;99.90;;;;;;4972244;28;20490;-80
2022/04/29 04:12:39;;;;;;;930.57;856.40;;;5.80;99.90;;;;;;4975663;28;20565;-79
2022/04/29 04:15:09;;;;;;;919.07;844.43;;;5.80;99.90;;;;;;4973145;28;20541;-80
2022/04/29 04:17:35;;;;;;;914.17;838.77;;;5.80;99.90;;;;;;4971556;28;20455;-79
2022/04/29 04:20:04;;;;;;;912.50;836.30;;;5.80;99.90;;;;;;4974378;28;20499;-80
2022/04/29 04:22:31;;;;;;;917.03;839.73;;;5.90;99.90;;;;;;4974711;28;20466;-81
2022/04/29 04:24:59;;;;;;;887.73;810.70;;;5.80;99.90;;;;;;4974609;28;20458;-80
2022/04/29 04:27:26;;;;;;;880.07;800.97;;;5.80;99.90;;;;;;4975417;28;20513;-80
2022/04/29 04:29:53;;;;;;;895.47;816.73;;;5.80;99.90;;;;;;4973245;28;20478;-81
2022/04/29 04:32:21;;;;;;;884.80;806.67;;;5.80;99.90;;;;;;4973767;28;20474;-80
2022/04/29 04:34:51;;;;;;;887.67;813.50;;;5.90;99.90;;;;;;4975285;28;20455;-80
2022/04/29 04:37:18;;;;;;;914.20;840.13;;;5.90;99.90;;;;;;4974005;28;20455;-80
2022/04/29 04:39:45;;;;;;;898.57;822.93;;;5.80;99.90;;;;;;4974037;28;20745;-80
2022/04/29 04:42:12;;;;;;;913.30;834.63;;;5.90;99.90;;;;;;4973663;28;20823;-80
2022/04/29 04:44:38;;;;;;;901.80;823.13;;;5.80;99.90;;;;;;4973268;28;20479;-80
2022/04/29 04:47:06;;;;;;;880.23;800.80;;;5.90;99.90;;;;;;4974900;28;20698;-80
2022/04/29 04:49:34;;;;;;;892.07;814.10;;;6.00;99.90;;;;;;4974472;28;20987;-80
2022/04/29 04:52:01;;;;;;;869.77;793.00;;;6.00;99.90;;;;;;4972608;28;20466;-80
2022/04/29 04:54:28;;;;;;;863.47;787.60;;;6.10;99.90;;;;;;4975872;28;20463;-81
2022/04/29 04:56:55;;;;;;;864.63;789.53;;;6.10;99.90;;;;;;4976617;28;20455;-80
2022/04/29 04:59:21;;;;;;;862.23;790.03;;;6.20;99.90;;;;;;4972697;28;20908;-80
2022/04/29 05:01:48;;;;;;;852.20;782.77;;;6.30;99.90;;;;;;4975309;28;20845;-81
2022/04/29 05:04:15;;;;;;;867.50;796.83;;;6.40;99.90;;;;;;4975546;28;20479;-80
2022/04/29 05:06:43;;;;;;;866.47;793.00;;;6.60;99.90;;;;;;4973037;28;20455;-80
2022/04/29 05:09:10;;;;;;;887.87;814.03;;;6.60;99.90;;;;;;4974808;28;20486;-80
2022/04/29 05:11:37;;;;;;;874.47;803.17;;;6.70;99.90;;;;;;4978982;28;20455;-82
2022/04/29 05:14:04;;;;;;;858.57;789.97;;;7.00;99.90;;;;;;4977431;28;20458;-81
2022/04/29 05:16:31;;;;;;;867.03;800.90;;;7.00;99.90;;;;;;4979942;28;20463;-81
2022/04/29 05:18:57;;;;;;;875.70;809.03;;;7.00;99.90;;;;;;4978426;28;20459;-80
2022/04/29 05:21:24;;;;;;;870.87;804.10;;;7.00;99.90;;;;;;4977031;28;20461;-80
2022/04/29 05:23:52;;;;;;;859.30;795.17;;;7.10;99.90;;;;;;4978819;28;20474;-80
2022/04/29 05:26:19;;;;;;;841.33;779.17;;;7.30;99.90;;;;;;4982829;28;20481;-82
2022/04/29 05:28:46;;;;;;;860.40;800.37;;;7.40;99.90;;;;;;4979149;28;20458;-81
2022/04/29 05:31:12;;;;;;;835.90;781.27;;;7.60;99.90;;;;;;4981237;28;20455;-82
2022/04/29 05:33:40;;;;;;;816.30;764.27;;;7.80;99.90;;;;;;4979793;28;20975;-80
2022/04/29 05:36:09;;;;;;;797.33;749.27;;;8.00;99.90;;;;;;4976317;28;20458;-79
2022/04/29 05:44:08;;;;;;;393.43;375.83;;;8.70;99.90;;;;;;4977231;28;20840;-80
2022/04/29 05:46:35;;;;;;;332.50;318.27;;;8.90;99.90;;;;;;4974972;28;20462;-80
2022/04/29 05:49:02;;;;;;;316.40;302.40;;;9.00;99.90;;;;;;4976187;28;20483;-80
2022/04/29 05:51:29;;;;;;;184.67;175.77;;;9.20;99.90;;;;;;4977555;28;20459;-81
2022/04/29 05:53:55;;;;;;;136.57;128.73;;;9.40;97.80;;;;;;4977024;28;20973;-81
2022/04/29 05:56:24;;;;;;;120.67;113.17;;;9.30;97.10;;;;;;4977296;28;20459;-80
2022/04/29 05:58:51;;;;;;;151.57;143.63;;;9.60;96.70;;;;;;4977306;28;20459;-80
2022/04/29 06:01:18;;;;;;;138.40;130.93;;;9.60;97.90;;;;;;4980458;28;20462;-82
2022/04/29 06:03:45;;;;;;;88.07;82.00;;;9.60;97.80;;;;;;4983726;28;20490;-81
2022/04/29 06:06:11;;;;;;;99.43;92.53;;;9.60;96.50;;;;;;4977919;28;20469;-81
2022/04/29 06:08:40;;;;;;;89.77;82.97;;;9.60;96.90;;;;;;4977650;28;20459;-80
2022/04/29 06:11:10;;;;;;;98.63;92.00;;;9.60;96.30;;;;;;4978473;28;20483;-81
2022/04/29 06:13:42;;;;;;;76.13;69.50;;;9.70;96.60;;;;;;4978688;28;20469;-81
2022/04/29 06:16:11;;;;;;;80.70;75.10;;;9.90;95.50;;;;;;4979212;28;20454;-82
2022/04/29 06:18:40;;;;;;;55.27;50.23;;;10.00;95.30;;;;;;4978114;28;20459;-80
2022/04/29 06:21:07;;;;;;;60.93;55.67;;;10.00;93.50;;;;;;4977588;28;20474;-81
2022/04/29 06:23:33;;;;;;;71.73;65.73;;;10.00;93.80;;;;;;4978210;28;20482;-82
2022/04/29 06:26:00;;;;;;;50.33;45.57;;;10.10;93.30;;;;;;4981619;28;20455;-82
2022/04/29 06:28:27;;;;;;;50.43;45.20;;;10.10;92.30;;;;;;4976508;28;20470;-80
2022/04/29 06:30:55;;;;;;;64.37;58.73;;;10.20;92.40;;;;;;4978037;28;20482;-82
2022/04/29 06:33:22;;;;;;;41.83;30.97;;;10.30;93.20;;;;;;4978755;28;20469;-82
2022/04/29 06:35:49;;;;;;;46.37;40.33;;;10.40;89.70;;;;;;4981621;28;20454;-83
2022/04/29 06:38:16;;;;;;;43.27;36.10;;;10.60;90.20;;;;;;4977373;28;20482;-82
2022/04/29 06:40:43;;;;;;;39.13;32.50;;;10.70;87.10;;;;;;4978228;28;20526;-84
2022/04/29 06:43:10;;;;;;;38.93;31.63;;;10.60;85.20;;;;;;4980117;28;20455;-83
2022/04/29 06:45:36;;;;;;;42.03;32.50;;;10.60;86.80;;;;;;4976013;28;20493;-81
2022/04/29 06:48:05;;;;;;;40.83;29.37;;;10.70;88.10;;;;;;4978251;28;20455;-82
2022/04/29 06:50:32;;;;;;;41.67;29.30;;;10.80;83.20;;;;;;4975355;28;20478;-82
2022/04/29 06:52:59;;;;;;;37.43;29.40;;;11.00;81.80;;;;;;4977448;28;20455;-81
2022/04/29 06:55:26;;;;;;;38.00;28.87;;;11.00;81.00;;;;;;4977011;28;20455;-82
2022/04/29 06:57:53;;;;;;;38.20;29.03;;;11.10;82.20;;;;;;4976310;28;20466;-82
2022/04/29 07:00:20;;;;;;;35.67;26.43;;;11.10;80.70;;;;;;4975943;28;20493;-82
2022/04/29 07:02:47;;;;;;;42.63;28.80;;;11.10;80.70;;;;;;4977620;28;20454;-82
2022/04/29 07:05:16;;;;;;;35.50;27.07;;;11.10;82.00;;;;;;4975787;28;20489;-82
2022/04/29 07:07:42;;;;;;;39.70;29.57;;;11.30;79.40;;;;;;4977248;28;20517;-82
2022/04/29 07:10:10;;;;;;;38.60;30.97;;;11.20;78.80;;;;;;4976794;28;20487;-81
2022/04/29 07:12:41;;;;;;;34.90;24.40;;;11.60;80.30;;;;;;4975672;28;20455;-82
2022/04/29 07:15:10;;;;;;;33.27;25.90;;;11.80;78.60;;;;;;4977276;28;20455;-82
2022/04/29 07:17:36;;;;;;;32.93;25.57;;;11.90;76.30;;;;;;4978055;28;20847;-82
2022/04/29 07:20:04;;;;;;;37.03;26.30;;;12.20;71.10;;;;;;4976721;28;20490;-81
2022/04/29 07:22:32;;;;;;;36.53;26.10;;;12.40;69.30;;;;;;4977701;28;20455;-82
2022/04/29 07:24:59;;;;;;;33.83;27.60;;;12.60;68.90;;;;;;4978005;28;20573;-82
2022/04/29 07:27:28;;;;;;;36.40;27.37;;;12.50;69.90;;;;;;4977827;28;20459;-82
2022/04/29 07:29:55;;;;;;;33.07;26.87;;;12.30;70.70;;;;;;4976538;28;20988;-82
2022/04/29 07:32:23;;;;;;;36.70;27.90;;;12.30;70.60;;;;;;4977568;28;20461;-82
2022/04/29 07:43:06;;;;;;;35.53;26.40;;;12.50;66.80;;;;;;4977232;28;20809;-82
2022/04/29 07:45:34;;;;;;;33.40;26.03;;;12.20;67.80;;;;;;4977712;28;20847;-82
2022/04/29 07:48:00;;;;;;;32.27;26.53;;;12.40;68.90;;;;;;4977590;28;20505;-82
2022/04/29 07:50:29;;;;;;;34.87;24.23;;;12.40;68.90;;;;;;4975952;28;20475;-82
2022/04/29 07:52:58;;;;;;;38.57;25.63;;;12.70;65.40;;;;;;4977399;28;20451;-83
2022/04/29 07:55:25;;;;;;;39.33;26.40;;;12.80;65.50;;;;;;4976946;28;20834;-82
2022/04/29 07:57:51;;;;;;;35.37;25.60;;;12.70;65.90;;;;;;4976923;28;20962;-82
2022/04/29 08:00:19;;;;;;;40.50;25.10;;;12.70;66.90;;;;;;4976243;28;20877;-81
2022/04/29 08:02:46;;;;;;;32.00;24.63;;;12.60;66.20;;;;;;4976394;28;20458;-82
2022/04/29 08:05:13;;;;;;;30.60;24.40;;;12.80;68.10;;;;;;4977085;28;20483;-81
2022/04/29 08:07:40;;;;;;;36.00;27.47;;;12.60;65.10;;;;;;4976727;28;20461;-82
2022/04/29 08:10:09;;;;;;;32.73;26.17;;;12.40;65.90;;;;;;4975815;28;20566;-82
2022/04/29 08:12:37;;;;;;;41.23;25.30;;;12.40;65.50;;;;;;4977125;28;20944;-82
2022/04/29 08:15:04;;;;;;;35.23;24.13;;;12.50;63.30;;;;;;4976997;28;20834;-82
2022/04/29 08:17:31;;;;;;;30.97;23.90;;;12.60;63.30;;;;;;4977122;28;20959;-82
2022/04/29 08:19:58;;;;;;;37.00;25.97;;;12.70;63.40;;;;;;4976413;28;20569;-82
2022/04/29 08:22:25;;;;;;;32.47;23.33;;;12.90;63.60;;;;;;4978267;28;20463;-82
2022/04/29 08:24:52;;;;;;;35.43;25.70;;;12.80;60.10;;;;;;4976877;28;20509;-82
2022/04/29 08:27:20;;;;;;;35.43;25.20;;;12.80;60.70;;;;;;4976662;28;20470;-82
2022/04/29 08:29:47;;;;;;;33.20;24.43;;;12.90;61.40;;;;;;4975129;28;20506;-81
2022/04/29 08:32:14;;;;;;;33.40;23.83;;;12.70;60.10;;;;;;4976265;28;20841;-82
2022/04/29 08:34:42;;;;;;;30.10;21.30;;;12.70;60.00;;;;;;4975378;28;20967;-83
2022/04/29 08:37:09;;;;;;;29.40;24.20;;;12.80;59.80;;;;;;4976595;28;20470;-84
2022/04/29 08:39:38;;;;;;;33.50;23.77;;;13.10;61.40;;;;;;4976933;28;20481;-79
2022/04/29 08:42:07;;;;;;;32.60;24.27;;;13.00;60.10;;;;;;4980165;28;20465;-83
2022/04/29 08:44:37;;;;;;;30.83;23.23;;;13.20;60.40;;;;;;4977527;28;21003;-83
2022/04/29 08:47:08;;;;;;;36.17;23.27;;;13.30;59.40;;;;;;4980677;28;20458;-83
2022/04/29 08:49:35;;;;;;;28.03;21.43;;;13.20;60.10;;;;;;4980186;28;20479;-82
2022/04/29 08:52:02;;;;;;;29.07;21.23;;;13.30;56.80;;;;;;4980580;28;20857;-83
2022/04/29 09:00:01;;;;;;;29.80;20.00;;;13.20;54.90;;;;;;4980595;28;20473;-82
2022/04/29 09:02:28;;;;;;;32.67;21.83;;;13.20;55.50;;;;;;4980110;28;20461;-83
2022/04/29 09:04:58;;;;;;;29.30;18.60;;;13.20;57.00;;;;;;4980118;28;21003;-81
2022/04/29 09:07:53;;;;;;;32.33;18.97;;;13.40;54.40;;;;;;4980498;28;20560;-83
2022/04/29 09:10:20;;;;;;;42.60;20.10;;;13.40;55.70;;;;;;4979684;28;20478;-83
2022/04/29 09:12:47;;;;;;;36.00;21.10;;;13.60;53.40;;;;;;4980340;28;20461;-83
2022/04/29 09:15:17;;;;;;;33.27;21.10;;;13.70;54.80;;;;;;4980575;28;20451;-82
2022/04/29 09:17:48;;;;;;;30.00;19.87;;;13.80;52.20;;;;;;4980349;28;20454;-83
2022/04/29 09:20:16;;;;;;;29.07;18.67;;;14.00;48.60;;;;;;4979114;28;20484;-84
2022/04/29 09:22:47;;;;;;;21.70;15.37;;;14.00;48.40;;;;;;4977831;28;20455;-82
2022/04/29 09:25:15;;;;;;;30.63;20.10;;;14.10;48.10;;;;;;4978014;28;20483;-83
2022/04/29 09:27:58;;;;;;;29.17;18.10;;;14.60;48.20;;;;;;4979253;28;20459;-84
2022/04/29 09:30:40;;;;;;;24.60;18.33;;;14.80;47.30;;;;;;4978890;28;20480;-82
2022/04/29 09:33:17;;;;;;;29.80;18.33;;;15.20;44.00;;;;;;4976551;28;20464;-83
2022/04/29 09:35:45;;;;;;;27.03;18.70;;;15.50;42.40;;;;;;4979966;28;20483;-83
2022/04/29 09:40:59;;;;;;;23.10;17.50;;;16.00;39.50;;;;;;4960305;28;20467;-83
2022/04/29 09:43:34;;;;;;;25.83;16.80;;;15.70;40.40;;;;;;4979319;28;20463;-83
2022/04/29 09:46:20;;;;;;;24.90;15.30;;;15.60;38.70;;;;;;4977828;28;20481;-84
2022/04/29 09:49:02;;;;;;;21.93;17.03;;;15.30;37.10;;;;;;4977173;28;20477;-81
2022/04/29 09:51:42;;;;;;;24.87;17.50;;;15.40;39.90;;;;;;4979211;28;20503;-83
2022/04/29 09:54:11;;;;;;;22.73;17.27;;;15.30;38.40;;;;;;4977253;28;20517;-83
2022/04/29 09:56:38;;;;;;;26.57;17.57;;;15.40;39.30;;;;;;4978325;28;20508;-83
2022/04/29 09:59:08;;;;;;;25.70;18.70;;;15.50;39.00;;;;;;4978616;28;20502;-83
2022/04/29 10:01:36;;;;;;;22.97;17.20;;;15.40;40.10;;;;;;4979745;28;20510;-82
2022/04/29 10:04:03;;;;;;;24.53;17.30;;;15.40;38.30;;;;;;4979435;28;20462;-83
2022/04/29 10:06:32;;;;;;;26.63;15.50;;;15.30;38.80;;;;;;4979513;28;20486;-84
2022/04/29 10:08:59;;;;;;;21.97;14.40;;;15.90;38.30;;;;;;4978271;28;20944;-83
2022/04/29 10:11:27;;;;;;;27.70;16.97;;;15.80;37.60;;;;;;4978921;28;20958;-83
2022/04/29 10:13:55;;;;;;;22.73;13.87;;;15.90;36.80;;;;;;4978802;28;20546;-83
2022/04/29 10:16:26;;;;;;;18.27;14.40;;;16.20;34.80;;;;;;4978900;28;20845;-82
2022/04/29 10:21:48;;;;;;;24.27;11.50;;;16.50;34.40;;;;;;4979034;28;20949;-82
2022/04/29 10:24:15;;;;;;;25.60;16.57;;;16.70;30.20;;;;;;4979254;28;20457;-83
2022/04/29 10:26:42;;;;;;;20.07;14.20;;;17.10;30.70;;;;;;4978933;28;20838;-83
2022/04/29 10:29:09;;;;;;;20.77;16.13;;;17.20;27.70;;;;;;4979708;28;20480;-84
2022/04/29 10:31:36;;;;;;;23.80;15.40;;;17.10;27.40;;;;;;4984534;28;20500;-83
2022/04/29 10:34:31;;;;;;;17.60;12.33;;;17.00;27.30;;;;;;4981113;28;20497;-84
2022/04/29 10:36:59;;;;;;;21.83;14.53;;;17.10;24.90;;;;;;4959958;28;20502;-83
2022/04/29 10:39:26;;;;;;;23.03;13.90;;;16.80;25.90;;;;;;4981720;28;20502;-83
2022/04/29 10:42:01;;;;;;;24.53;12.90;;;16.80;26.60;;;;;;4981989;28;20462;-83
2022/04/29 10:44:28;;;;;;;21.30;13.90;;;16.60;27.00;;;;;;4982145;28;20456;-83
2022/04/29 10:46:55;;;;;;;24.20;15.97;;;16.50;26.10;;;;;;4982716;28;20459;-81
2022/04/29 10:49:24;;;;;;;25.30;12.93;;;16.90;26.80;;;;;;4982269;28;20480;-83
2022/04/29 10:51:53;;;;;;;14.57;9.67;;;17.10;27.40;;;;;;4984009;28;20469;-83
2022/04/29 10:54:43;;;;;;;27.43;13.73;;;16.80;25.70;;;;;;4982362;28;20458;-86
2022/04/29 10:57:12;;;;;;;25.67;15.40;;;16.80;24.80;;;;;;4978064;28;20525;-83
2022/04/29 10:59:57;;;;;;;17.00;10.93;;;17.00;24.90;;;;;;4977581;28;20533;-83
2022/04/29 11:02:28;;;;;;;20.60;14.43;;;16.80;24.40;;;;;;4977679;28;20972;-83
2022/04/29 11:04:56;;;;;;;19.00;14.10;;;16.90;26.50;;;;;;4978690;28;20859;-83
2022/04/29 11:07:45;;;;;;;26.10;16.13;;;17.20;22.60;;;;;;4977655;28;20475;-83
2022/04/29 11:10:14;;;;;;;27.63;16.10;;;17.50;23.40;;;;;;4975860;28;20486;-83
2022/04/29 11:12:43;;;;;;;22.43;14.43;;;18.10;21.80;;;;;;4979024;28;20455;-83
2022/04/29 11:15:15;;;;;;;19.27;14.67;;;18.60;19.40;;;;;;4978120;28;20465;-83
2022/04/29 11:17:43;;;;;;;22.17;15.47;;;18.60;19.60;;;;;;4979768;28;20458;-83
2022/04/29 11:20:18;;;;;;;26.40;15.73;;;18.70;16.10;;;;;;4984683;28;20479;-82
2022/04/29 11:25:55;;;;;;;19.57;11.47;;;19.50;17.00;;;;;;4983466;28;20477;-82
2022/04/29 11:28:22;;;;;;;18.10;15.80;;;19.70;17.60;;;;;;4980202;28;20454;-84
2022/04/29 11:30:50;;;;;;;19.43;14.13;;;19.40;15.50;;;;;;4978155;28;20486;-83
2022/04/29 11:33:23;;;;;;;22.27;14.63;;;18.90;15.90;;;;;;4978194;28;20456;-83
2022/04/29 11:35:52;;;;;;;21.53;13.13;;;18.50;17.90;;;;;;4977521;28;20508;-82
2022/04/29 11:38:20;;;;;;;20.03;13.70;;;18.50;17.50;;;;;;4976433;28;20676;-83
2022/04/29 11:40:47;;;;;;;24.07;13.70;;;18.50;16.30;;;;;;4977675;28;20478;-83
2022/04/29 11:43:14;;;;;;;21.67;15.07;;;18.50;18.60;;;;;;4977474;28;20460;-83
2022/04/29 11:45:41;;;;;;;21.83;14.53;;;18.40;18.60;;;;;;4976969;28;20478;-82
2022/04/29 11:48:09;;;;;;;20.90;12.33;;;18.70;15.50;;;;;;4977781;28;20870;-80
2022/04/29 11:50:38;;;;;;;18.30;12.93;;;18.20;16.50;;;;;;4977038;28;20516;-84
2022/04/29 11:53:06;;;;;;;24.73;14.03;;;18.60;17.90;;;;;;4977838;28;20453;-85
2022/04/29 11:55:35;;;;;;;21.07;10.63;;;18.90;17.00;;;;;;4977069;28;20464;-84
2022/04/29 11:58:02;;;;;;;24.80;14.15;;;18.80;15.30;;;;;;4979242;28;20894;-83
2022/04/29 12:00:31;;;;;;;29.43;14.03;;;18.50;17.30;;;;;;4978974;28;20252;-85
2022/04/29 12:02:59;;;;;;;25.38;13.23;;;18.40;16.80;;;;;;4977988;28;20458;-85
2022/04/29 12:05:27;;;;;;;21.38;15.30;;;18.30;16.50;;;;;;4978141;28;20464;-83
2022/04/29 12:07:54;;;;;;;19.60;15.85;;;18.20;17.70;;;;;;4978128;28;20461;-84
2022/04/29 12:10:22;;;;;;;18.77;14.40;;;18.50;16.70;;;;;;4975905;28;20454;-84
2022/04/29 12:12:55;;;;;;;27.20;15.73;;;17.90;16.90;;;;;;4977832;28;20262;-82
2022/04/29 12:15:25;;;;;;;18.77;13.33;;;17.60;18.00;;;;;;4979231;28;20464;-84
2022/04/29 12:17:56;;;;;;;24.23;12.30;;;18.00;17.00;;;;;;4979172;28;20465;-84
2022/04/29 12:20:23;;;;;;;16.30;13.37;;;17.80;16.80;;;;;;4979358;28;20473;-84
2022/04/29 12:22:52;;;;;;;22.77;14.23;;;18.00;19.20;;;;;;4981245;28;20461;-81
2022/04/29 12:25:26;;;;;;;16.97;12.30;;;17.90;18.20;;;;;;4981566;28;20219;-83
2022/04/29 12:28:16;;;;;;;23.55;14.85;;;17.50;18.00;;;;;;4981550;28;20454;-84
2022/04/29 12:36:31;;;;;;;26.58;16.77;;;17.70;18.30;;;;;;4981122;28;20465;-84
2022/04/29 12:39:05;;;;;;;24.67;14.50;;;17.90;18.20;;;;;;4980127;28;20457;-85
2022/04/29 12:41:32;;;;;;;19.37;11.40;;;17.70;18.00;;;;;;4981580;28;20758;-84
2022/04/29 12:44:09;;;;;;;18.33;11.93;;;17.30;15.40;;;;;;4980800;28;20980;-83
2022/04/29 12:46:36;;;;;;;19.70;13.30;;;17.20;16.10;;;;;;4981505;28;20487;-85
2022/04/29 12:49:04;;;;;;;27.17;12.70;;;17.40;17.80;;;;;;4980514;28;20457;-83
2022/04/29 12:51:33;;;;;;;20.80;12.80;;;17.10;14.70;;;;;;4981771;28;20487;-84
2022/04/29 12:54:01;;;;;;;18.80;11.97;;;17.30;17.20;;;;;;4982312;28;20507;-82
2022/04/29 12:56:30;;;;;;;19.67;10.23;;;17.20;17.70;;;;;;4980774;28;20835;-83
2022/04/29 12:58:58;;;;;;;26.07;12.70;;;16.90;17.50;;;;;;4980535;28;20465;-84
2022/04/29 13:01:26;;;;;;;14.67;10.73;;;17.20;20.10;;;;;;4981512;28;20467;-85
2022/04/29 13:03:54;;;;;;;23.80;11.77;;;17.00;17.50;;;;;;4981793;28;20463;-85